sensor_id;sensor_type;location;lat;lon;timestamp;pressure;altitude;pressure_sealevel;temperature;humidity
56402;BME280;42299;35.160;26.100;2024-02-21T00:05:26;101856.69;;;11.18;100.00
56402;BME280;42299;35.160;26.100;2024-02-21T00:10:49;101857.47;;;11.14;100.00
56402;BME280;42299;35.160;26.100;2024-02-21T00:16:11;101861.69;;;11.09;100.00
56402;BME280;42299;35.160;26.100;2024-02-21T00:21:35;101860.41;;;10.97;100.00
56402;BME280;42299;35.160;26.100;2024-02-21T00:26:58;101858.84;;;10.75;100.00
56402;BME280;42299;35.160;26.100;2024-02-21T00:32:20;101862.13;;;10.68;100.00
56402;BME280;42299;35.160;26.100;2024-02-21T00:37:44;101849.00;;;10.71;100.00
56402;BME280;42299;35.160;26.100;2024-02-21T00:43:07;101841.69;;;10.62;100.00
56402;BME280;42299;35.160;26.100;2024-02-21T00:48:29;101849.97;;;10.73;100.00
56402;BME280;42299;35.160;26.100;2024-02-21T00:53:53;101841.25;;;10.75;100.00
56402;BME280;42299;35.160;26.100;2024-02-21T00:59:16;101834.00;;;10.70;100.00
56402;BME280;42299;35.160;26.100;2024-02-21T01:04:39;101832.03;;;10.63;100.00
56402;BME280;42299;35.160;26.100;2024-02-21T01:10:03;101832.72;;;10.57;100.00
56402;BME280;42299;35.160;26.100;2024-02-21T01:15:26;101825.69;;;10.58;100.00
56402;BME280;42299;35.160;26.100;2024-02-21T01:20:48;101825.41;;;10.49;100.00
56402;BME280;42299;35.160;26.100;2024-02-21T01:26:12;101828.81;;;10.46;100.00
56402;BME280;42299;35.160;26.100;2024-02-21T01:31:36;101815.94;;;10.55;100.00
56402;BME280;42299;35.160;26.100;2024-02-21T01:36:58;101816.19;;;10.36;100.00
56402;BME280;42299;35.160;26.100;2024-02-21T01:42:26;101815.47;;;10.16;100.00
56402;BME280;42299;35.160;26.100;2024-02-21T01:47:49;101815.38;;;10.13;100.00
56402;BME280;42299;35.160;26.100;2024-02-21T01:53:13;101805.00;;;10.18;100.00
56402;BME280;42299;35.160;26.100;2024-02-21T01:58:42;101803.38;;;10.21;100.00
56402;BME280;42299;35.160;26.100;2024-02-21T02:04:05;101807.88;;;10.00;100.00
56402;BME280;42299;35.160;26.100;2024-02-21T02:09:28;101806.69;;;9.92;100.00
56402;BME280;42299;35.160;26.100;2024-02-21T02:14:59;101802.78;;;9.81;100.00
56402;BME280;42299;35.160;26.100;2024-02-21T02:20:21;101804.63;;;9.58;100.00
56402;BME280;42299;35.160;26.100;2024-02-21T02:25:46;101800.63;;;9.69;100.00
56402;BME280;42299;35.160;26.100;2024-02-21T02:31:10;101819.41;;;9.54;100.00
56402;BME280;42299;35.160;26.100;2024-02-21T02:36:33;101819.97;;;9.46;100.00
56402;BME280;42299;35.160;26.100;2024-02-21T02:41:57;101818.94;;;9.65;100.00
56402;BME280;42299;35.160;26.100;2024-02-21T02:47:19;101820.13;;;9.74;100.00
56402;BME280;42299;35.160;26.100;2024-02-21T02:52:42;101815.41;;;9.64;100.00
56402;BME280;42299;35.160;26.100;2024-02-21T02:58:06;101814.22;;;9.56;100.00
56402;BME280;42299;35.160;26.100;2024-02-21T03:03:29;101820.09;;;9.49;100.00
56402;BME280;42299;35.160;26.100;2024-02-21T03:08:52;101824.34;;;9.45;100.00
56402;BME280;42299;35.160;26.100;2024-02-21T03:14:17;101830.56;;;9.24;100.00
56402;BME280;42299;35.160;26.100;2024-02-21T03:19:40;101831.88;;;9.12;100.00
56402;BME280;42299;35.160;26.100;2024-02-21T03:25:03;101827.03;;;9.01;100.00
56402;BME280;42299;35.160;26.100;2024-02-21T03:30:27;101830.19;;;9.14;100.00
56402;BME280;42299;35.160;26.100;2024-02-21T03:35:49;101827.84;;;9.44;100.00
56402;BME280;42299;35.160;26.100;2024-02-21T03:41:12;101830.88;;;9.33;100.00
56402;BME280;42299;35.160;26.100;2024-02-21T03:46:36;101834.78;;;9.18;100.00
56402;BME280;42299;35.160;26.100;2024-02-21T03:51:58;101834.78;;;9.18;100.00
56402;BME280;42299;35.160;26.100;2024-02-21T03:57:21;101834.09;;;9.24;100.00
56402;BME280;42299;35.160;26.100;2024-02-21T04:02:45;101834.41;;;9.09;100.00
56402;BME280;42299;35.160;26.100;2024-02-21T04:08:07;101838.22;;;9.17;100.00
56402;BME280;42299;35.160;26.100;2024-02-21T04:13:30;101835.00;;;9.25;100.00
56402;BME280;42299;35.160;26.100;2024-02-21T04:18:54;101834.50;;;9.12;100.00
56402;BME280;42299;35.160;26.100;2024-02-21T04:24:17;101841.22;;;9.04;100.00
56402;BME280;42299;35.160;26.100;2024-02-21T04:29:39;101843.38;;;9.14;100.00
56402;BME280;42299;35.160;26.100;2024-02-21T04:35:03;101849.06;;;9.25;100.00
56402;BME280;42299;35.160;26.100;2024-02-21T04:40:26;101862.09;;;9.44;100.00
56402;BME280;42299;35.160;26.100;2024-02-21T04:45:48;101856.31;;;9.54;100.00
56402;BME280;42299;35.160;26.100;2024-02-21T04:51:13;101853.59;;;9.51;100.00
56402;BME280;42299;35.160;26.100;2024-02-21T04:56:35;101858.69;;;9.71;100.00
56402;BME280;42299;35.160;26.100;2024-02-21T05:01:58;101869.84;;;9.87;100.00
56402;BME280;42299;35.160;26.100;2024-02-21T05:07:22;101858.81;;;9.99;100.00
56402;BME280;42299;35.160;26.100;2024-02-21T05:12:44;101866.19;;;10.08;100.00
56402;BME280;42299;35.160;26.100;2024-02-21T05:18:07;101861.50;;;10.24;100.00
56402;BME280;42299;35.160;26.100;2024-02-21T05:23:31;101858.66;;;10.44;100.00
56402;BME280;42299;35.160;26.100;2024-02-21T05:28:53;101861.19;;;10.41;100.00
56402;BME280;42299;35.160;26.100;2024-02-21T05:34:16;101864.81;;;10.44;100.00
56402;BME280;42299;35.160;26.100;2024-02-21T05:39:40;101871.09;;;11.28;100.00
56402;BME280;42299;35.160;26.100;2024-02-21T05:45:03;101856.75;;;12.80;100.00
56402;BME280;42299;35.160;26.100;2024-02-21T05:50:26;101855.50;;;13.02;100.00
56402;BME280;42299;35.160;26.100;2024-02-21T05:55:50;101868.50;;;15.16;100.00
56402;BME280;42299;35.160;26.100;2024-02-21T06:01:13;101879.81;;;16.39;100.00
56402;BME280;42299;35.160;26.100;2024-02-21T06:06:36;101870.03;;;17.54;100.00
56402;BME280;42299;35.160;26.100;2024-02-21T06:12:00;101868.38;;;19.81;98.26
56402;BME280;42299;35.160;26.100;2024-02-21T06:17:22;101874.50;;;21.25;81.81
56402;BME280;42299;35.160;26.100;2024-02-21T06:22:45;101878.78;;;21.41;78.30
56402;BME280;42299;35.160;26.100;2024-02-21T06:28:09;101879.19;;;21.81;73.34
56402;BME280;42299;35.160;26.100;2024-02-21T06:33:31;101881.53;;;21.35;75.39
56402;BME280;42299;35.160;26.100;2024-02-21T06:38:54;101883.81;;;21.72;70.00
56402;BME280;42299;35.160;26.100;2024-02-21T06:44:18;101888.13;;;22.51;65.34
56402;BME280;42299;35.160;26.100;2024-02-21T06:49:40;101888.47;;;23.35;58.64
56402;BME280;42299;35.160;26.100;2024-02-21T06:55:04;101890.28;;;23.79;56.28
56402;BME280;42299;35.160;26.100;2024-02-21T07:00:27;101897.97;;;24.41;51.29
56402;BME280;42299;35.160;26.100;2024-02-21T07:05:50;101889.69;;;24.84;48.52
56402;BME280;42299;35.160;26.100;2024-02-21T07:11:12;101902.78;;;24.63;49.96
56402;BME280;42299;35.160;26.100;2024-02-21T07:16:36;101907.22;;;26.59;45.47
56402;BME280;42299;35.160;26.100;2024-02-21T07:21:59;101911.94;;;28.52;40.74
56402;BME280;42299;35.160;26.100;2024-02-21T07:27:21;101898.25;;;29.19;36.97
56402;BME280;42299;35.160;26.100;2024-02-21T07:32:53;101905.28;;;30.42;35.35
56402;BME280;42299;35.160;26.100;2024-02-21T07:38:15;101915.09;;;27.95;37.57
56402;BME280;42299;35.160;26.100;2024-02-21T07:43:39;101911.97;;;29.38;35.72
56402;BME280;42299;35.160;26.100;2024-02-21T07:49:03;101892.13;;;29.55;34.77
56402;BME280;42299;35.160;26.100;2024-02-21T07:54:25;101902.31;;;26.98;37.89
56402;BME280;42299;35.160;26.100;2024-02-21T07:59:48;101902.41;;;26.11;39.82
56402;BME280;42299;35.160;26.100;2024-02-21T08:05:12;101904.97;;;27.26;37.20
56402;BME280;42299;35.160;26.100;2024-02-21T08:10:34;101921.94;;;27.31;37.14
56402;BME280;42299;35.160;26.100;2024-02-21T08:15:57;101916.16;;;29.65;32.37
56402;BME280;42299;35.160;26.100;2024-02-21T08:21:21;101920.22;;;27.80;34.03
56402;BME280;42299;35.160;26.100;2024-02-21T08:26:44;101929.16;;;27.32;35.32
56402;BME280;42299;35.160;26.100;2024-02-21T08:32:06;101925.91;;;29.09;31.86
56402;BME280;42299;35.160;26.100;2024-02-21T08:37:30;101937.75;;;31.72;28.57
56402;BME280;42299;35.160;26.100;2024-02-21T08:42:53;101949.72;;;32.68;27.38
56402;BME280;42299;35.160;26.100;2024-02-21T08:48:16;101944.38;;;31.50;28.58
56402;BME280;42299;35.160;26.100;2024-02-21T08:53:40;101944.03;;;32.06;27.48
56402;BME280;42299;35.160;26.100;2024-02-21T08:59:02;101943.88;;;31.42;27.71
56402;BME280;42299;35.160;26.100;2024-02-21T09:04:25;101938.59;;;32.87;26.54
56402;BME280;42299;35.160;26.100;2024-02-21T09:09:49;101950.25;;;31.93;26.24
56402;BME280;42299;35.160;26.100;2024-02-21T09:15:12;101944.84;;;31.41;27.28
56402;BME280;42299;35.160;26.100;2024-02-21T09:20:36;101948.94;;;32.17;25.64
56402;BME280;42299;35.160;26.100;2024-02-21T09:26:01;101936.06;;;33.13;25.24
56402;BME280;42299;35.160;26.100;2024-02-21T09:31:25;101928.41;;;32.26;25.60
56402;BME280;42299;35.160;26.100;2024-02-21T09:36:47;101927.91;;;30.99;26.20
56402;BME280;42299;35.160;26.100;2024-02-21T09:42:11;101932.97;;;30.89;26.76
56402;BME280;42299;35.160;26.100;2024-02-21T09:47:40;101935.94;;;31.02;26.78
56402;BME280;42299;35.160;26.100;2024-02-21T09:53:06;101937.94;;;31.34;26.18
56402;BME280;42299;35.160;26.100;2024-02-21T09:58:32;101933.25;;;31.19;26.16
56402;BME280;42299;35.160;26.100;2024-02-21T10:03:55;101927.75;;;31.02;26.91
56402;BME280;42299;35.160;26.100;2024-02-21T10:09:22;101934.47;;;31.48;25.90
56402;BME280;42299;35.160;26.100;2024-02-21T10:14:46;101919.50;;;31.03;26.60
56402;BME280;42299;35.160;26.100;2024-02-21T10:20:08;101916.78;;;30.67;27.12
56402;BME280;42299;35.160;26.100;2024-02-21T10:25:31;101908.75;;;30.45;27.71
56402;BME280;42299;35.160;26.100;2024-02-21T10:30:55;101907.13;;;30.04;27.45
56402;BME280;42299;35.160;26.100;2024-02-21T10:36:19;101901.09;;;29.97;28.15
56402;BME280;42299;35.160;26.100;2024-02-21T10:41:42;101900.13;;;29.39;29.62
56402;BME280;42299;35.160;26.100;2024-02-21T10:47:09;101888.44;;;30.15;28.36
56402;BME280;42299;35.160;26.100;2024-02-21T10:52:42;101889.66;;;28.88;29.83
56402;BME280;42299;35.160;26.100;2024-02-21T10:58:09;101890.41;;;27.04;32.28
56402;BME280;42299;35.160;26.100;2024-02-21T11:03:34;101884.78;;;26.82;32.66
56402;BME280;42299;35.160;26.100;2024-02-21T11:09:02;101871.41;;;27.55;32.11
56402;BME280;42299;35.160;26.100;2024-02-21T11:14:26;101867.69;;;27.81;31.38
56402;BME280;42299;35.160;26.100;2024-02-21T11:19:51;101862.28;;;26.52;33.05
56402;BME280;42299;35.160;26.100;2024-02-21T11:25:21;101855.41;;;26.12;34.21
56402;BME280;42299;35.160;26.100;2024-02-21T11:30:44;101848.44;;;26.05;34.12
56402;BME280;42299;35.160;26.100;2024-02-21T11:36:11;101845.22;;;25.63;34.85
56402;BME280;42299;35.160;26.100;2024-02-21T11:41:33;101843.56;;;25.25;36.07
56402;BME280;42299;35.160;26.100;2024-02-21T11:46:56;101846.69;;;24.75;36.58
56402;BME280;42299;35.160;26.100;2024-02-21T11:52:21;101841.00;;;24.13;37.59
56402;BME280;42299;35.160;26.100;2024-02-21T11:57:47;101832.63;;;24.25;38.04
56402;BME280;42299;35.160;26.100;2024-02-21T12:03:10;101830.50;;;24.39;37.88
56402;BME280;42299;35.160;26.100;2024-02-21T12:08:42;101843.13;;;23.97;37.65
56402;BME280;42299;35.160;26.100;2024-02-21T12:14:05;101838.75;;;23.50;38.25
56402;BME280;42299;35.160;26.100;2024-02-21T12:19:29;101831.50;;;23.55;39.31
56402;BME280;42299;35.160;26.100;2024-02-21T12:24:53;101831.09;;;23.73;39.93
56402;BME280;42299;35.160;26.100;2024-02-21T12:30:16;101835.84;;;23.62;39.18
56402;BME280;42299;35.160;26.100;2024-02-21T12:35:39;101828.56;;;23.20;40.06
56402;BME280;42299;35.160;26.100;2024-02-21T12:41:03;101832.28;;;22.63;40.32
56402;BME280;42299;35.160;26.100;2024-02-21T12:46:26;101831.94;;;22.28;40.80
56402;BME280;42299;35.160;26.100;2024-02-21T12:51:48;101829.66;;;22.01;41.52
56402;BME280;42299;35.160;26.100;2024-02-21T12:57:12;101823.72;;;21.74;42.26
56402;BME280;42299;35.160;26.100;2024-02-21T13:02:35;101825.59;;;21.69;42.53
56402;BME280;42299;35.160;26.100;2024-02-21T13:07:58;101822.00;;;21.72;43.53
56402;BME280;42299;35.160;26.100;2024-02-21T13:13:22;101821.81;;;21.84;44.23
56402;BME280;42299;35.160;26.100;2024-02-21T13:18:45;101815.81;;;21.65;44.25
56402;BME280;42299;35.160;26.100;2024-02-21T13:24:08;101828.53;;;21.48;45.41
56402;BME280;42299;35.160;26.100;2024-02-21T13:29:32;101805.25;;;21.50;44.50
56402;BME280;42299;35.160;26.100;2024-02-21T13:34:55;101815.06;;;21.53;44.01
56402;BME280;42299;35.160;26.100;2024-02-21T13:40:20;101805.00;;;21.68;43.33
56402;BME280;42299;35.160;26.100;2024-02-21T13:45:55;101801.44;;;21.66;42.70
56402;BME280;42299;35.160;26.100;2024-02-21T13:51:18;101799.13;;;21.39;42.71
56402;BME280;42299;35.160;26.100;2024-02-21T13:56:48;101809.88;;;21.36;43.37
56402;BME280;42299;35.160;26.100;2024-02-21T14:08:45;101814.59;;;21.17;43.53
56402;BME280;42299;35.160;26.100;2024-02-21T14:14:08;101814.31;;;20.54;45.00
56402;BME280;42299;35.160;26.100;2024-02-21T14:19:30;101817.22;;;20.18;46.09
56402;BME280;42299;35.160;26.100;2024-02-21T14:24:54;101812.09;;;19.78;46.88
56402;BME280;42299;35.160;26.100;2024-02-21T14:30:17;101813.13;;;19.45;48.19
56402;BME280;42299;35.160;26.100;2024-02-21T14:35:40;101815.91;;;19.14;50.03
56402;BME280;42299;35.160;26.100;2024-02-21T14:41:05;101816.84;;;18.96;52.13
56402;BME280;42299;35.160;26.100;2024-02-21T14:46:27;101811.50;;;18.82;53.09
56402;BME280;42299;35.160;26.100;2024-02-21T14:51:50;101809.75;;;18.69;54.30
56402;BME280;42299;35.160;26.100;2024-02-21T14:57:14;101814.22;;;18.62;55.27
56402;BME280;42299;35.160;26.100;2024-02-21T15:02:37;101812.41;;;18.75;55.86
56402;BME280;42299;35.160;26.100;2024-02-21T15:07:59;101819.53;;;18.82;56.34
56402;BME280;42299;35.160;26.100;2024-02-21T15:13:24;101812.41;;;18.58;56.92
56402;BME280;42299;35.160;26.100;2024-02-21T15:18:47;101818.59;;;18.21;59.23
56402;BME280;42299;35.160;26.100;2024-02-21T15:24:09;101813.16;;;17.80;62.21
56402;BME280;42299;35.160;26.100;2024-02-21T15:29:34;101816.56;;;17.38;65.35
56402;BME280;42299;35.160;26.100;2024-02-21T15:34:56;101825.28;;;17.06;67.36
56402;BME280;42299;35.160;26.100;2024-02-21T15:40:19;101817.19;;;16.91;68.59
56402;BME280;42299;35.160;26.100;2024-02-21T15:45:43;101820.66;;;16.80;69.87
56402;BME280;42299;35.160;26.100;2024-02-21T15:51:06;101821.47;;;16.66;72.71
56402;BME280;42299;35.160;26.100;2024-02-21T15:56:29;101831.97;;;16.53;74.87
56402;BME280;42299;35.160;26.100;2024-02-21T16:01:53;101829.91;;;16.23;81.80
56402;BME280;42299;35.160;26.100;2024-02-21T16:07:16;101830.56;;;15.99;87.51
56402;BME280;42299;35.160;26.100;2024-02-21T16:12:39;101823.22;;;15.78;93.14
56402;BME280;42299;35.160;26.100;2024-02-21T16:18:03;101832.69;;;15.53;97.93
56402;BME280;42299;35.160;26.100;2024-02-21T16:23:27;101827.03;;;15.31;100.00
56402;BME280;42299;35.160;26.100;2024-02-21T16:28:50;101834.59;;;15.00;100.00
56402;BME280;42299;35.160;26.100;2024-02-21T16:34:14;101833.50;;;14.86;100.00
56402;BME280;42299;35.160;26.100;2024-02-21T16:39:36;101835.97;;;14.74;100.00
56402;BME280;42299;35.160;26.100;2024-02-21T16:44:59;101848.63;;;14.38;100.00
56402;BME280;42299;35.160;26.100;2024-02-21T16:50:24;101849.22;;;14.23;100.00
56402;BME280;42299;35.160;26.100;2024-02-21T16:55:47;101856.09;;;14.12;100.00
56402;BME280;42299;35.160;26.100;2024-02-21T17:01:09;101860.41;;;14.07;100.00
56402;BME280;42299;35.160;26.100;2024-02-21T17:06:33;101868.97;;;13.90;100.00
56402;BME280;42299;35.160;26.100;2024-02-21T17:11:57;101876.53;;;13.72;100.00
56402;BME280;42299;35.160;26.100;2024-02-21T17:17:19;101877.91;;;13.53;100.00
56402;BME280;42299;35.160;26.100;2024-02-21T17:22:43;101881.00;;;13.33;100.00
56402;BME280;42299;35.160;26.100;2024-02-21T17:28:06;101887.81;;;13.22;100.00
56402;BME280;42299;35.160;26.100;2024-02-21T17:33:29;101898.47;;;13.23;100.00
56402;BME280;42299;35.160;26.100;2024-02-21T17:38:53;101902.88;;;13.23;100.00
56402;BME280;42299;35.160;26.100;2024-02-21T17:44:16;101903.69;;;13.20;100.00
56402;BME280;42299;35.160;26.100;2024-02-21T17:49:42;101904.16;;;13.04;100.00
56402;BME280;42299;35.160;26.100;2024-02-21T17:55:08;101906.72;;;13.01;100.00
56402;BME280;42299;35.160;26.100;2024-02-21T18:00:35;101917.97;;;12.91;100.00
56402;BME280;42299;35.160;26.100;2024-02-21T18:06:02;101922.00;;;12.75;100.00
56402;BME280;42299;35.160;26.100;2024-02-21T18:11:28;101917.13;;;12.57;100.00
56402;BME280;42299;35.160;26.100;2024-02-21T18:16:51;101919.22;;;12.70;100.00
56402;BME280;42299;35.160;26.100;2024-02-21T18:22:13;101928.34;;;12.82;100.00
56402;BME280;42299;35.160;26.100;2024-02-21T18:27:38;101927.97;;;12.66;100.00
56402;BME280;42299;35.160;26.100;2024-02-21T18:33:00;101925.97;;;12.58;100.00
56402;BME280;42299;35.160;26.100;2024-02-21T18:38:23;101931.06;;;12.50;100.00
56402;BME280;42299;35.160;26.100;2024-02-21T18:43:47;101931.69;;;12.40;100.00
56402;BME280;42299;35.160;26.100;2024-02-21T18:49:10;101927.78;;;12.27;100.00
56402;BME280;42299;35.160;26.100;2024-02-21T18:54:32;101926.91;;;12.27;100.00
56402;BME280;42299;35.160;26.100;2024-02-21T18:59:56;101940.06;;;12.57;100.00
56402;BME280;42299;35.160;26.100;2024-02-21T19:05:18;101935.94;;;12.66;100.00
56402;BME280;42299;35.160;26.100;2024-02-21T19:10:42;101949.50;;;12.80;100.00
56402;BME280;42299;35.160;26.100;2024-02-21T19:16:07;101942.97;;;12.66;100.00
56402;BME280;42299;35.160;26.100;2024-02-21T19:21:31;101938.16;;;12.51;100.00
56402;BME280;42299;35.160;26.100;2024-02-21T19:26:54;101939.78;;;12.46;100.00
56402;BME280;42299;35.160;26.100;2024-02-21T19:32:18;101939.38;;;12.31;100.00
56402;BME280;42299;35.160;26.100;2024-02-21T19:37:42;101942.88;;;12.30;100.00
56402;BME280;42299;35.160;26.100;2024-02-21T19:43:04;101944.72;;;12.32;100.00
56402;BME280;42299;35.160;26.100;2024-02-21T19:48:28;101949.50;;;12.47;100.00
56402;BME280;42299;35.160;26.100;2024-02-21T19:53:51;101947.13;;;12.56;100.00
56402;BME280;42299;35.160;26.100;2024-02-21T19:59:14;101939.25;;;12.59;100.00
56402;BME280;42299;35.160;26.100;2024-02-21T20:04:38;101931.88;;;12.48;100.00
56402;BME280;42299;35.160;26.100;2024-02-21T20:10:01;101936.78;;;12.34;100.00
56402;BME280;42299;35.160;26.100;2024-02-21T20:15:25;101927.50;;;12.17;100.00
56402;BME280;42299;35.160;26.100;2024-02-21T20:20:57;101922.66;;;12.01;100.00
56402;BME280;42299;35.160;26.100;2024-02-21T20:26:20;101917.25;;;11.97;100.00
56402;BME280;42299;35.160;26.100;2024-02-21T20:31:43;101915.72;;;11.74;100.00
56402;BME280;42299;35.160;26.100;2024-02-21T20:37:07;101923.31;;;11.65;100.00
56402;BME280;42299;35.160;26.100;2024-02-21T20:42:31;101914.19;;;11.55;100.00
56402;BME280;42299;35.160;26.100;2024-02-21T20:47:54;101919.94;;;11.41;100.00
56402;BME280;42299;35.160;26.100;2024-02-21T20:53:18;101921.69;;;11.40;100.00
56402;BME280;42299;35.160;26.100;2024-02-21T20:58:44;101927.69;;;11.35;100.00
56402;BME280;42299;35.160;26.100;2024-02-21T21:04:07;101923.78;;;11.24;100.00
56402;BME280;42299;35.160;26.100;2024-02-21T21:09:31;101927.75;;;11.09;100.00
56402;BME280;42299;35.160;26.100;2024-02-21T21:14:54;101925.06;;;11.08;100.00
56402;BME280;42299;35.160;26.100;2024-02-21T21:20:16;101929.28;;;11.30;100.00
56402;BME280;42299;35.160;26.100;2024-02-21T21:25:42;101926.16;;;11.14;100.00
56402;BME280;42299;35.160;26.100;2024-02-21T21:31:04;101928.09;;;10.93;100.00
56402;BME280;42299;35.160;26.100;2024-02-21T21:36:29;101922.56;;;10.86;100.00
56402;BME280;42299;35.160;26.100;2024-02-21T21:41:55;101919.84;;;10.83;100.00
56402;BME280;42299;35.160;26.100;2024-02-21T21:47:18;101921.78;;;10.88;100.00
56402;BME280;42299;35.160;26.100;2024-02-21T21:52:41;101909.03;;;11.03;100.00
56402;BME280;42299;35.160;26.100;2024-02-21T21:58:10;101901.38;;;11.11;100.00
56402;BME280;42299;35.160;26.100;2024-02-21T22:03:41;101899.09;;;11.22;100.00
56402;BME280;42299;35.160;26.100;2024-02-21T22:09:05;101905.47;;;11.28;100.00
56402;BME280;42299;35.160;26.100;2024-02-21T22:14:31;101901.91;;;11.28;100.00
56402;BME280;42299;35.160;26.100;2024-02-21T22:19:56;101899.59;;;11.38;100.00
56402;BME280;42299;35.160;26.100;2024-02-21T22:25:19;101903.91;;;11.36;100.00
56402;BME280;42299;35.160;26.100;2024-02-21T22:30:45;101907.56;;;11.40;100.00
56402;BME280;42299;35.160;26.100;2024-02-21T22:36:12;101905.72;;;11.37;100.00
56402;BME280;42299;35.160;26.100;2024-02-21T22:41:35;101905.13;;;11.46;100.00
56402;BME280;42299;35.160;26.100;2024-02-21T22:47:00;101894.81;;;11.55;100.00
56402;BME280;42299;35.160;26.100;2024-02-21T22:52:25;101902.66;;;11.52;100.00
56402;BME280;42299;35.160;26.100;2024-02-21T22:57:50;101898.63;;;11.65;100.00
56402;BME280;42299;35.160;26.100;2024-02-21T23:03:15;101895.34;;;11.73;100.00
56402;BME280;42299;35.160;26.100;2024-02-21T23:08:41;101900.84;;;11.79;100.00
56402;BME280;42299;35.160;26.100;2024-02-21T23:14:07;101896.53;;;11.81;100.00
56402;BME280;42299;35.160;26.100;2024-02-21T23:19:39;101893.03;;;11.84;100.00
56402;BME280;42299;35.160;26.100;2024-02-21T23:25:03;101896.38;;;11.77;100.00
56402;BME280;42299;35.160;26.100;2024-02-21T23:30:26;101892.16;;;11.83;100.00
56402;BME280;42299;35.160;26.100;2024-02-21T23:35:52;101892.47;;;11.94;100.00
56402;BME280;42299;35.160;26.100;2024-02-21T23:41:15;101896.03;;;11.96;100.00
56402;BME280;42299;35.160;26.100;2024-02-21T23:46:40;101892.16;;;11.83;100.00
56402;BME280;42299;35.160;26.100;2024-02-21T23:52:13;101884.22;;;11.83;100.00
56402;BME280;42299;35.160;26.100;2024-02-21T23:57:38;101886.94;;;11.86;100.00
